Safari Quest — WDB7690 — position and weather

sailwx.info

Track history (hours):
 
Tides and Currents Weather Stations Pressure Air Temp Water Temp Dewpoint Dewpoint Depression Visibility Wind Speed Wind Dir Waves Ship Positions

Safari Quest

Owner: American Safari Cruises, Lynnwood, WA. More information available from US FCC via Universal Licensing System and Coast Guard Vessel Documentation Center.

Last reported at 2014-May-29 21:33 UTC. Time now 2014-Oct-21 18:26 UTC.
Position N 47°39' W 122°23'.
Warning: this ship's position is months out of date.

Date/timePositionNaut miles runAvg speedWind from/ knotsBaromVisibWave heightAir tempDewpointWater temp
2014-May-29 21:33N 47°39' W 122°23'0 0.0
2014-May-29 20:33N 47°39' W 122°23'0 0.0
2014-May-29 20:33N 47°39' W 122°23'  
2014-May-24 15:51N 47°39' W 122°23'0 0.0
2014-May-24 15:33N 47°39' W 122°23'0 0.0
2014-May-24 15:31N 47°39' W 122°23'1 0.4
2014-May-24 13:33N 47°40' W 122°24'0 0.5
2014-May-24 13:29N 47°40' W 122°24'7 7.6
2014-May-24 12:33N 47°45' W 122°32'0 0.1
2014-May-24 12:29N 47°45' W 122°32'0 0.0
2014-May-24 11:33N 47°45' W 122°32'0 0.0
2014-May-24 11:29N 47°45' W 122°32'0 0.0
2014-May-24 10:33N 47°45' W 122°32'0 0.0
2014-May-24 10:29N 47°45' W 122°32'0 0.0
2014-May-24 09:33N 47°45' W 122°32'0 0.2
2014-May-24 09:29N 47°45' W 122°32'0 0.0
2014-May-24 08:33N 47°45' W 122°32'0 0.1
2014-May-24 08:28N 47°45' W 122°32'0 0.0
2014-May-24 07:33N 47°45' W 122°32'0 0.0
2014-May-24 07:29N 47°45' W 122°32'0 0.0
2014-May-24 06:34N 47°45' W 122°32'0 0.0
2014-May-24 06:33N 47°45' W 122°32'0 0.0
2014-May-24 05:39N 47°45' W 122°32'0 0.1
2014-May-24 05:33N 47°45' W 122°32'0 0.0
2014-May-24 04:31N 47°45' W 122°32'0 0.2
2014-May-24 04:15N 47°45' W 122°32'3 3.9
2014-May-24 03:33N 47°45' W 122°28'8 8.5
2014-May-24 02:33N 47°53' W 122°30'2 9.2
2014-May-24 02:17N 47°55' W 122°31'6 8.3
2014-May-24 01:32N 47°60' W 122°38'8 7.8
2014-May-24 00:32N 48°07' W 122°42'16 7.8
2014-May-23 22:33N 48°20' W 122°55'3 2.8
2014-May-23 21:33N 48°23' W 122°54'5 4.7
2014-May-23 20:33N 48°27' W 122°57'5 5.4
2014-May-23 19:33N 48°32' W 122°59'1 1.5
2014-May-23 18:33N 48°32' W 123°01'0 0.0
2014-May-23 17:33N 48°32' W 123°01'0 0.0
2014-May-23 16:33N 48°32' W 123°01'0 0.0
2014-May-23 15:33N 48°32' W 123°01'3 2.8
2014-May-23 14:33N 48°35' W 123°03'9 9.1
2014-May-23 13:33N 48°42' W 123°12'9 9.3
2014-May-23 12:33N 48°48' W 123°22'6 6.1
2014-May-23 11:33N 48°51' W 123°30'0 0.0
2014-May-23 10:33N 48°51' W 123°30'0 0.0
2014-May-23 09:33N 48°51' W 123°30'0 0.0
2014-May-23 08:33N 48°51' W 123°30'0 0.0
2014-May-23 07:33N 48°51' W 123°30'0 0.0
2014-May-23 06:33N 48°51' W 123°30'0 0.0
2014-May-23 05:32N 48°51' W 123°30'0 0.0
2014-May-23 04:33N 48°51' W 123°30'0 0.0
2014-May-23 03:33N 48°51' W 123°30'0 0.0
2014-May-23 02:13N 48°51' W 123°30'0 0.0
2014-May-23 00:32N 48°51' W 123°30'0 0.0
2014-May-22 23:33N 48°51' W 123°30'0 0.0
2014-May-22 22:33N 48°51' W 123°30'0 0.0
2014-May-22 21:32N 48°51' W 123°30'3 3.3
2014-May-22 20:33N 48°50' W 123°25'1010.0
2014-May-22 19:33N 48°58' W 123°34'10 9.9
2014-May-22 18:32N 49°05' W 123°45'9 8.8
2014-May-22 17:33N 49°12' W 123°54'10 9.9
2014-May-22 16:33N 49°20' W 124°02'8 7.6
2014-May-22 15:33N 49°27' W 124°07'0 0.1
2014-May-22 14:33N 49°27' W 124°07'5 4.8
2014-May-22 13:33N 49°30' W 124°13'0 0.0
2014-May-22 12:33N 49°30' W 124°13'0 0.0
2014-May-22 11:33N 49°30' W 124°13'0 0.0
2014-May-22 10:33N 49°30' W 124°13'0 0.0
2014-May-22 09:33N 49°30' W 124°13'0 0.0
2014-May-22 08:33N 49°30' W 124°13'0 0.0
2014-May-22 07:33N 49°30' W 124°13'0 0.0
2014-May-22 06:37N 49°30' W 124°13'0 0.0
2014-May-22 05:33N 49°30' W 124°13'0 0.0
2014-May-22 04:33N 49°30' W 124°13'0 0.0
2014-May-22 03:33N 49°30' W 124°13'0 0.0
2014-May-22 02:33N 49°30' W 124°13'0 0.0
2014-May-22 01:33N 49°30' W 124°13'0 0.0
2014-May-22 00:33N 49°30' W 124°13'0 0.1
2014-May-21 23:46N 49°30' W 124°13'0 0.0
2014-May-21 22:33N 49°30' W 124°13'4 4.0
2014-May-21 21:33N 49°29' W 124°07'9 8.6
2014-May-21 20:33N 49°37' W 124°12'8 8.4
2014-May-21 19:33N 49°45' W 124°14'9 8.9
2014-May-21 18:33N 49°50' W 124°02'2 1.0
2014-May-21 16:33N 49°52' W 124°01'0 0.0
2014-May-21 15:33N 49°52' W 124°01'0 0.0
2014-May-21 14:21N 49°52' W 124°01'0 0.0
2014-May-21 12:35N 49°52' W 124°01'0 0.0
2014-May-21 11:33N 49°52' W 124°01'0 0.0
2014-May-21 10:33N 49°52' W 124°01'0 0.0
2014-May-21 09:33N 49°52' W 124°01'0 0.0
2014-May-21 08:33N 49°52' W 124°01'0 0.0
2014-May-21 07:33N 49°52' W 124°01'0 0.0
2014-May-21 06:33N 49°52' W 124°01'0 0.0
2014-May-21 05:33N 49°52' W 124°01'0 0.1
2014-May-21 04:33N 49°52' W 124°01'5 4.7
2014-May-21 03:33N 49°49' W 123°55'9 8.6
2014-May-21 02:33N 49°57' W 123°59'9 8.6
2014-May-21 01:33N 50°04' W 123°50'6 5.5
2014-May-21 00:32N 50°09' W 123°51'4 0.2
2014-May-20 00:28N 50°12' W 123°47'4 3.8
2014-May-19 23:31N 50°09' W 123°51'0 0.2
2014-May-19 22:33N 50°09' W 123°51'6 6.4
2014-May-19 21:33N 50°03' W 123°51'  
Track history (hours):
 
Tides and Currents Weather Stations Pressure Air Temp Water Temp Dewpoint Dewpoint Depression Visibility Wind Speed Wind Dir Waves Ship Positions

Safari Quest

Owner: American Safari Cruises, Lynnwood, WA. More information available from US FCC via Universal Licensing System and Coast Guard Vessel Documentation Center.

Last reported at 2014-May-29 21:33 UTC. Time now 2014-Oct-21 18:26 UTC.
Position N 47°39' W 122°23'.
Warning: this ship's position is months out of date.

Date/timePositionNaut miles runAvg speedWind from/ knotsBaromVisibWave heightAir tempDewpointWater temp
2014-May-29 21:33N 47°39' W 122°23'0 0.0
2014-May-29 20:33N 47°39' W 122°23'0 0.0
2014-May-29 20:33N 47°39' W 122°23'  
2014-May-24 15:51N 47°39' W 122°23'0 0.0
2014-May-24 15:33N 47°39' W 122°23'0 0.0
2014-May-24 15:31N 47°39' W 122°23'1 0.4
2014-May-24 13:33N 47°40' W 122°24'0 0.5
2014-May-24 13:29N 47°40' W 122°24'7 7.6
2014-May-24 12:33N 47°45' W 122°32'0 0.1
2014-May-24 12:29N 47°45' W 122°32'0 0.0
2014-May-24 11:33N 47°45' W 122°32'0 0.0
2014-May-24 11:29N 47°45' W 122°32'0 0.0
2014-May-24 10:33N 47°45' W 122°32'0 0.0
2014-May-24 10:29N 47°45' W 122°32'0 0.0
2014-May-24 09:33N 47°45' W 122°32'0 0.2
2014-May-24 09:29N 47°45' W 122°32'0 0.0
2014-May-24 08:33N 47°45' W 122°32'0 0.1
2014-May-24 08:28N 47°45' W 122°32'0 0.0
2014-May-24 07:33N 47°45' W 122°32'0 0.0
2014-May-24 07:29N 47°45' W 122°32'0 0.0
2014-May-24 06:34N 47°45' W 122°32'0 0.0
2014-May-24 06:33N 47°45' W 122°32'0 0.0
2014-May-24 05:39N 47°45' W 122°32'0 0.1
2014-May-24 05:33N 47°45' W 122°32'0 0.0
2014-May-24 04:31N 47°45' W 122°32'0 0.2
2014-May-24 04:15N 47°45' W 122°32'3 3.9
2014-May-24 03:33N 47°45' W 122°28'8 8.5
2014-May-24 02:33N 47°53' W 122°30'2 9.2
2014-May-24 02:17N 47°55' W 122°31'6 8.3
2014-May-24 01:32N 47°60' W 122°38'8 7.8
2014-May-24 00:32N 48°07' W 122°42'16 7.8
2014-May-23 22:33N 48°20' W 122°55'3 2.8
2014-May-23 21:33N 48°23' W 122°54'5 4.7
2014-May-23 20:33N 48°27' W 122°57'5 5.4
2014-May-23 19:33N 48°32' W 122°59'1 1.5
2014-May-23 18:33N 48°32' W 123°01'0 0.0
2014-May-23 17:33N 48°32' W 123°01'0 0.0
2014-May-23 16:33N 48°32' W 123°01'0 0.0
2014-May-23 15:33N 48°32' W 123°01'3 2.8
2014-May-23 14:33N 48°35' W 123°03'9 9.1
2014-May-23 13:33N 48°42' W 123°12'9 9.3
2014-May-23 12:33N 48°48' W 123°22'6 6.1
2014-May-23 11:33N 48°51' W 123°30'0 0.0
2014-May-23 10:33N 48°51' W 123°30'0 0.0
2014-May-23 09:33N 48°51' W 123°30'0 0.0
2014-May-23 08:33N 48°51' W 123°30'0 0.0
2014-May-23 07:33N 48°51' W 123°30'0 0.0
2014-May-23 06:33N 48°51' W 123°30'0 0.0
2014-May-23 05:32N 48°51' W 123°30'0 0.0
2014-May-23 04:33N 48°51' W 123°30'0 0.0
2014-May-23 03:33N 48°51' W 123°30'0 0.0
2014-May-23 02:13N 48°51' W 123°30'0 0.0
2014-May-23 00:32N 48°51' W 123°30'0 0.0
2014-May-22 23:33N 48°51' W 123°30'0 0.0
2014-May-22 22:33N 48°51' W 123°30'0 0.0
2014-May-22 21:32N 48°51' W 123°30'3 3.3
2014-May-22 20:33N 48°50' W 123°25'1010.0
2014-May-22 19:33N 48°58' W 123°34'10 9.9
2014-May-22 18:32N 49°05' W 123°45'9 8.8
2014-May-22 17:33N 49°12' W 123°54'10 9.9
2014-May-22 16:33N 49°20' W 124°02'8 7.6
2014-May-22 15:33N 49°27' W 124°07'0 0.1
2014-May-22 14:33N 49°27' W 124°07'5 4.8
2014-May-22 13:33N 49°30' W 124°13'0 0.0
2014-May-22 12:33N 49°30' W 124°13'0 0.0
2014-May-22 11:33N 49°30' W 124°13'0 0.0
2014-May-22 10:33N 49°30' W 124°13'0 0.0
2014-May-22 09:33N 49°30' W 124°13'0 0.0
2014-May-22 08:33N 49°30' W 124°13'0 0.0
2014-May-22 07:33N 49°30' W 124°13'0 0.0
2014-May-22 06:37N 49°30' W 124°13'0 0.0
2014-May-22 05:33N 49°30' W 124°13'0 0.0
2014-May-22 04:33N 49°30' W 124°13'0 0.0
2014-May-22 03:33N 49°30' W 124°13'0 0.0
2014-May-22 02:33N 49°30' W 124°13'0 0.0
2014-May-22 01:33N 49°30' W 124°13'0 0.0
2014-May-22 00:33N 49°30' W 124°13'0 0.1
2014-May-21 23:46N 49°30' W 124°13'0 0.0
2014-May-21 22:33N 49°30' W 124°13'4 4.0
2014-May-21 21:33N 49°29' W 124°07'9 8.6
2014-May-21 20:33N 49°37' W 124°12'8 8.4
2014-May-21 19:33N 49°45' W 124°14'9 8.9
2014-May-21 18:33N 49°50' W 124°02'2 1.0
2014-May-21 16:33N 49°52' W 124°01'0 0.0
2014-May-21 15:33N 49°52' W 124°01'0 0.0
2014-May-21 14:21N 49°52' W 124°01'0 0.0
2014-May-21 12:35N 49°52' W 124°01'0 0.0
2014-May-21 11:33N 49°52' W 124°01'0 0.0
2014-May-21 10:33N 49°52' W 124°01'0 0.0
2014-May-21 09:33N 49°52' W 124°01'0 0.0
2014-May-21 08:33N 49°52' W 124°01'0 0.0
2014-May-21 07:33N 49°52' W 124°01'0 0.0
2014-May-21 06:33N 49°52' W 124°01'0 0.0
2014-May-21 05:33N 49°52' W 124°01'0 0.1
2014-May-21 04:33N 49°52' W 124°01'5 4.7
2014-May-21 03:33N 49°49' W 123°55'9 8.6
2014-May-21 02:33N 49°57' W 123°59'9 8.6
2014-May-21 01:33N 50°04' W 123°50'6 5.5
2014-May-21 00:32N 50°09' W 123°51'4 0.2
2014-May-20 00:28N 50°12' W 123°47'4 3.8
2014-May-19 23:31N 50°09' W 123°51'0 0.2
2014-May-19 22:33N 50°09' W 123°51'6 6.4
2014-May-19 21:33N 50°03' W 123°51'  

Dump ship's entire track history